• Join FlightAware (Why Join?)
  • Login
  • US Flag 
02:16PM EDT


 

Airport Tracker/Info


-or-


 

Live Flight TrackerFlight Track Log ✈ DAL268 ✈ 09-May-2013 ✈ KATL - KJFK

Flight Track Log - Related Links

Times and Time Zones

All times are in EDT time to prevent confusion due to time zone crossing. See the DAL268 flight status page for this flight to view local times or setup timezone preferences in your user account.

Time Position Orientation Groundspeed Altitude Reporting Facility
EDT Latitude Longitude Course Direction KTS MPH feet Rate Location/Type
07:16PM 33.6328 -84.4831 64° Northeast 446 513 2,300  Level Atlanta Center
07:17PM 33.6011 -84.5525 241° Southwest 347 399 3,900 2,100 Climbing Atlanta Center
07:18PM 33.7145 -84.0199 101° East  Level FlightAware Approximate
07:18PM 33.5406 -84.5897 207° Southwest 266 306 6,500  Level Atlanta Center
07:19PM 33.6922 -83.8859 101° East  Level FlightAware Approximate
07:19PM 33.4569 -84.5692 168° South 299 344 8,500  Level Atlanta Center
07:20PM 33.6698 -83.7519 101° East  Level FlightAware Approximate
07:20PM 33.4469 -84.4694 97° East 272 313 10,500  Level Atlanta Center
07:21PM 33.6558 -83.6192 64° Northeast  Level FlightAware Approximate
07:21PM 33.4536 -84.3525 86° East 287 330 11,500  Level Atlanta Center
07:22PM 33.4747 -84.2231 79° East 385 443 12,900 1,680 Climbing Atlanta Center
07:23PM 33.5292 -84.0986 62° Northeast 398 458 14,900 1,920 Climbing Atlanta Center
07:25PM 33.6228 -83.8267 67° East 435 501 18,700 1,740 Climbing Atlanta Center
07:26PM 33.6539 -83.6794 76° East 447 514 20,200 1,500 Climbing Atlanta Center
07:27PM 33.7014 -83.5344 68° East 462 532 21,700 1,440 Climbing Atlanta Center
07:28PM 33.7611 -83.3917 63° Northeast 462 532 23,100 1,500 Climbing Atlanta Center
07:29PM 33.8189 -83.2486 64° Northeast 467 537 24,800 1,500 Climbing Atlanta Center
07:30PM 33.8764 -83.1081 64° Northeast 467 537 26,100 1,380 Climbing Atlanta Center
07:31PM 33.9314 -82.9622 66° East 467 537 27,600 1,320 Climbing Atlanta Center
07:32PM 33.9928 -82.8236 62° Northeast 467 537 28,800 1,020 Climbing Atlanta Center
07:33PM 34.0475 -82.6800 65° Northeast 467 537 29,700 600 Climbing Atlanta Center
07:34PM 34.0942 -82.5539 66° East 460 529 30,000 120 Climbing Atlanta Center
07:35PM 34.1547 -82.4019 64° Northeast 454 522 30,000  Level Atlanta Center
07:36PM 34.2114 -82.2603 64° Northeast 454 522 30,000  Level Atlanta Center
07:37PM 34.2675 -82.1208 64° Northeast 454 522 30,000  Level Atlanta Center
07:38PM 34.3344 -81.9911 58° Northeast 449 517 30,000  Level Atlanta Center
07:39PM 34.3989 -81.8586 59° Northeast 454 522 30,000 240 Level Atlanta Center
07:40PM 34.4675 -81.7258 58° Northeast 454 522 30,500 480 Climbing Atlanta Center
07:41PM 34.5317 -81.5931 60° Northeast 454 522 31,000 240 Climbing Atlanta Center
07:42PM 34.5958 -81.4625 59° Northeast 454 522 31,000  Level Atlanta Center
07:43PM 34.6617 -81.3292 59° Northeast 454 522 31,000  Level Atlanta Center
07:44PM 34.7297 -81.1931 59° Northeast 454 522 31,000  Level Atlanta Center
07:45PM 34.7933 -81.0617 59° Northeast 454 522 31,000  Level Atlanta Center
07:46PM 34.8567 -80.9278 60° Northeast 454 522 31,000  Level Atlanta Center
07:47PM 34.9242 -80.7936 58° Northeast 454 522 31,000  Level Atlanta Center
07:49PM 35.0481 -80.5342 60° Northeast 456 525 31,000  Level Washington Center
07:50PM 35.1119 -80.4008 60° Northeast 456 525 31,000  Level Washington Center
07:51PM 35.1781 -80.2650 59° Northeast 456 525 31,000  Level Washington Center
07:52PM 35.2417 -80.1314 60° Northeast 456 525 31,000  Level Washington Center
07:53PM 35.3050 -80.0003 59° Northeast 451 519 31,000  Level Washington Center
07:54PM 35.3681 -79.8661 60° Northeast 451 519 31,000  Level Washington Center
07:55PM 35.4272 -79.7292 62° Northeast 451 519 31,000  Level Washington Center
07:56PM 35.4697 -79.5833 70° East 451 519 31,000  Level Washington Center
07:57PM 35.5122 -79.4325 71° East 451 519 31,000  Level Washington Center
07:58PM 35.5544 -79.2836 71° East 458 527 31,000  Level Washington Center
07:59PM 35.5964 -79.1375 71° East 458 527 31,000  Level Washington Center
08:00PM 35.6386 -78.9861 71° East 458 527 31,000  Level Washington Center
08:01PM 35.6800 -78.8394 71° East 458 527 31,000  Level Washington Center
08:02PM 35.7194 -78.6903 72° East 458 527 31,000  Level Washington Center
08:03PM 35.7564 -78.5561 71° East 458 527 31,000  Level Washington Center
08:04PM 35.7956 -78.4064 72° East 458 527 31,000  Level Washington Center
08:05PM 35.8344 -78.2567 72° East 458 527 31,000  Level Washington Center
08:06PM 35.8753 -78.1042 72° East 458 527 31,000  Level Washington Center
08:07PM 35.9136 -77.9567 72° East 453 521 31,000  Level Washington Center
08:08PM 35.9519 -77.8064 72° East 453 521 31,000  Level Washington Center
08:09PM 36.0025 -77.6639 66° East 453 521 31,000  Level Washington Center
08:10PM 36.0775 -77.5425 53° Northeast 448 516 31,000  Level Washington Center
08:11PM 36.1547 -77.4211 52° Northeast 443 510 31,000  Level Washington Center
08:12PM 36.2150 -77.2783 62° Northeast 431 496 31,000  Level Washington Center
08:13PM 36.2319 -77.1214 82° East 441 507 31,000  Level Washington Center
08:14PM 36.2483 -76.9647 83° East 441 507 31,000  Level Washington Center
08:15PM 36.2625 -76.8053 84° East 451 519 31,000  Level Washington Center
08:16PM 36.2994 -76.6539 73° East 457 526 31,000  Level Washington Center
08:17PM 36.3919 -76.5597 39° Northeast 411 473 31,000  Level Washington Center
08:18PM 36.5011 -76.4911 27° Northeast 411 473 31,000  Level Washington Center
08:19PM 36.6122 -76.4225 26° Northeast 427 491 31,000  Level Washington Center
08:20PM 36.7211 -76.3486 29° Northeast 432 497 31,000  Level Washington Center
08:21PM 36.8281 -76.2794 27° Northeast 437 503 31,000  Level Washington Center
08:22PM 36.9283 -76.2156 27° Northeast 437 503 31,000  Level Washington Center
08:23PM 37.0436 -76.1486 25° Northeast 437 503 31,000  Level Washington Center
08:24PM 37.1503 -76.0767 28° Northeast 437 503 31,000  Level Washington Center
08:25PM 37.2611 -76.0017 28° Northeast 437 503 31,000  Level Washington Center
08:26PM 37.3717 -75.9317 27° Northeast 437 503 31,000  Level Washington Center
08:27PM 37.4806 -75.8561 29° Northeast 437 503 31,000  Level Washington Center
08:28PM 37.5892 -75.7831 28° Northeast 437 503 31,000  Level Washington Center
08:29PM 37.6975 -75.7100 28° Northeast 437 503 31,000  Level Washington Center
08:30PM 37.8061 -75.6444 25° Northeast 432 497 31,000  Level Washington Center
08:31PM 37.9144 -75.5681 29° Northeast 432 497 31,000  Level Washington Center
08:32PM 38.0250 -75.4942 28° Northeast 432 497 31,000  Level Washington Center
08:33PM 38.1333 -75.4256 26° Northeast 432 497 31,000  Level Washington Center
08:34PM 38.2439 -75.3539 27° Northeast 432 497 31,000  Level Washington Center
08:35PM 38.3500 -75.2847 27° Northeast 427 491 31,000  Level Washington Center
08:36PM 38.4603 -75.2100 28° Northeast 427 491 31,000 -60 Level Washington Center
08:37PM 38.5725 -75.1456 24° Northeast 434 499 30,900  Descending Washington Center
08:38PM 38.6808 -75.0783 26° Northeast 434 499 31,000  Climbing Washington Center
08:39PM 38.7889 -75.0031 28° Northeast 428 493 31,000  Level Washington Center
08:40PM 38.8947 -74.9328 27° Northeast 428 493 31,000  Level Washington Center
08:41PM 39.0028 -74.8678 25° Northeast 428 493 31,000 -480 Level Washington Center
08:42PM 39.1064 -74.7919 30° Northeast 423 487 30,100 -1,800 Descending Washington Center
08:43PM 39.1994 -74.6917 40° Northeast 433 498 27,500 -2,520 Descending Washington Center
08:44PM 39.2928 -74.5936 39° Northeast 442 509 25,100 -2,460 Descending New York Center
08:45PM 39.3836 -74.4911 41° Northeast 436 502 22,700 -2,520 Descending New York Center
08:46PM 39.4700 -74.3961 40° Northeast 415 478 20,200 -2,280 Descending New York Center
08:47PM 39.5542 -74.3008 41° Northeast 401 461 18,100 -1,560 Descending New York Center
08:48PM 39.6383 -74.2078 40° Northeast 391 450 17,100 -1,380 Descending New York Center
08:49PM 39.7286 -74.1097 40° Northeast 391 450 15,500 -1,560 Descending New York Center
08:50PM 39.8125 -74.0219 39° Northeast 391 450 14,100 -1,320 Descending New York Center
08:51PM 39.8894 -73.9550 34° Northeast 377 434 12,900 -1,380 Descending New York Center
08:52PM 39.9808 -73.8861 30° Northeast 378 435 11,400 -960 Descending New York Center
08:53PM 40.0783 -73.8200 27° Northeast 366 421 11,000 -480 Descending New York Center
08:54PM 40.1333 -73.8167 North 281 323 10,700 -1,380 Descending New York TRACON
08:55PM 40.2000 -73.8500 339° North 283 326 8,900 -1,740 Descending New York TRACON
08:55PM 40.2250 -73.8756 322° Northwest 274 315 8,300 -1,380 Descending New York Center
08:56PM 40.2956 -73.8842 355° North 274 315 7,000 -1,440 Descending New York Center
08:57PM 40.3167 -73.8333 61° Northeast 297 342 6,200 -1,380 Descending New York TRACON
08:58PM 40.2833 -73.7167 110° East 290 334 4,800 -1,020 Descending New York TRACON
08:59PM 40.3167 -73.6500 57° Northeast 279 321 4,100 -600 Descending New York TRACON
08:59PM 40.3417 -73.6247 38° Northeast 238 274 4,000 -120 Descending New York Center
09:00PM 40.4056 -73.5756 30° Northeast 252 290 4,000  Level New York Center
09:01PM 40.4333 -73.5500 35° Northeast 266 306 4,000  Level New York TRACON
09:02PM 40.5000 -73.5000 30° Northeast 266 306 4,000 -180 Level New York TRACON
09:03PM 40.5667 -73.4500 30° Northeast 267 307 3,700 -480 Descending New York TRACON
09:04PM 40.6500 -73.4667 351° North 258 297 3,000 -360 Descending New York TRACON
09:05PM 40.7167 -73.4667 360° North 242 278 3,000  Level New York TRACON
09:06PM 40.7667 -73.5167 323° Northwest 208 239 3,000 -480 Level New York TRACON
09:07PM 40.7833 -73.5667 294° West 204 235 2,100 -540 Descending New York TRACON
09:08PM 40.7833 -73.6333 270° West 193 222 2,000 -60 Descending New York TRACON
09:09PM 40.7500 -73.6833 229° Southwest 167 192 2,000  Level New York TRACON